Time;durP1;ratioP1;P1;durP2;ratioP2;P2;SDS_P1;SDS_P2;PMS_P1;PMS_P2;Temp;Humidity;BMP_temperature;BMP_pressure;BME280_temperature;BME280_humidity;BME280_pressure;Samples;Min_cycle;Max_cycle;Signal;HPM_P1;HPM_P2
2022/06/03 00:01:35;;;;;;;5.30;4.80;;;;;;;;;;5060363;28;20430;-79
2022/06/03 00:04:12;;;;;;;4.77;4.47;;;;;;;;;;5057817;28;20485;-79
2022/06/03 00:06:54;;;;;;;4.70;4.30;;;;;;;;;;5060602;28;20833;-79
2022/06/03 00:09:30;;;;;;;4.77;4.47;;;;;;;;;;5039227;28;20474;-79
2022/06/03 00:12:09;;;;;;;5.03;4.57;;;;;;;;;;5041173;28;20506;-80
2022/06/03 00:14:45;;;;;;;5.43;4.97;;;;;;;;;;5049278;28;20442;-79
2022/06/03 00:17:21;;;;;;;5.03;4.63;;;;;;;;;;5050480;28;20422;-79
2022/06/03 00:19:53;;;;;;;4.63;4.33;;;;;;;;;;5050970;28;20493;-80
2022/06/03 00:22:31;;;;;;;5.33;4.83;;;;;;;;;;5048032;28;20472;-79
2022/06/03 00:25:03;;;;;;;4.77;4.37;;;;;;;;;;5047074;28;20426;-79
2022/06/03 00:27:37;;;;;;;5.00;4.60;;;;;;;;;;5040943;28;20891;-78
2022/06/03 00:30:08;;;;;;;5.10;4.77;;;;;;;;;;5042693;28;20454;-78
2022/06/03 00:32:54;;;;;;;5.87;5.40;;;;;;;;;;5039421;28;20423;-78
2022/06/03 00:35:36;;;;;;;5.20;4.80;;;;;;;;;;5042021;28;20423;-80
2022/06/03 00:38:10;;;;;;;5.10;4.70;;;;;;;;;;5037443;28;20551;-79
2022/06/03 00:40:43;;;;;;;4.87;4.47;;;;;;;;;;5038206;28;20438;-80
2022/06/03 00:43:32;;;;;;;5.67;5.27;;;;;;;;;;5037871;28;20499;-79
2022/06/03 00:46:03;;;;;;;5.23;4.80;;;;;;;;;;5038637;28;20458;-79
2022/06/03 00:48:38;;;;;;;4.73;4.33;;;;;;;;;;5038962;28;20466;-78
2022/06/03 00:51:22;;;;;;;5.03;4.63;;;;;;;;;;5035453;28;20457;-78
2022/06/03 00:54:06;;;;;;;5.17;4.77;;;;;;;;;;5034753;28;20442;-79
2022/06/03 00:56:48;;;;;;;4.87;4.50;;;;;;;;;;5034783;28;21028;-79
2022/06/03 00:59:26;;;;;;;5.00;4.60;;;;;;;;;;5035148;28;20505;-78
2022/06/03 01:02:00;;;;;;;6.70;5.57;;;;;;;;;;5034578;28;21062;-79
2022/06/03 01:04:47;;;;;;;5.20;4.80;;;;;;;;;;5034423;28;20474;-78
2022/06/03 01:07:20;;;;;;;5.20;4.80;;;;;;;;;;5037830;28;20431;-79
2022/06/03 01:10:04;;;;;;;5.03;4.63;;;;;;;;;;5036265;28;20478;-79
2022/06/03 01:12:41;;;;;;;5.13;4.73;;;;;;;;;;5038892;28;20450;-79
2022/06/03 01:15:28;;;;;;;6.33;5.70;;;;;;;;;;5046596;28;20443;-79
2022/06/03 01:18:01;;;;;;;5.67;5.27;;;;;;;;;;5038892;28;20450;-80
2022/06/03 01:20:36;;;;;;;5.77;5.37;;;;;;;;;;5038867;28;20471;-79
2022/06/03 01:23:17;;;;;;;5.90;5.50;;;;;;;;;;5039513;28;20932;-80
2022/06/03 01:26:03;;;;;;;6.07;5.57;;;;;;;;;;5037121;28;20439;-79
2022/06/03 01:29:03;;;;;;;5.40;5.00;;;;;;;;;;5039141;28;20474;-80
2022/06/03 01:31:56;;;;;;;5.70;5.30;;;;;;;;;;5036730;28;21118;-79
2022/06/03 01:34:29;;;;;;;10.63;5.37;;;;;;;;;;5037544;28;20828;-79
2022/06/03 01:37:03;;;;;;;6.37;5.87;;;;;;;;;;5041362;28;20430;-79
2022/06/03 01:39:45;;;;;;;6.40;5.87;;;;;;;;;;5042372;28;20470;-78
2022/06/03 01:42:32;;;;;;;6.60;5.77;;;;;;;;;;5035146;28;20512;-79
2022/06/03 01:45:09;;;;;;;5.97;5.63;;;;;;;;;;5025488;28;20768;-80
2022/06/03 01:47:58;;;;;;;6.27;5.87;;;;;;;;;;5037301;28;20407;-79
2022/06/03 01:50:49;;;;;;;5.73;5.23;;;;;;;;;;5035788;28;20541;-79
2022/06/03 01:53:36;;;;;;;5.70;5.20;;;;;;;;;;5034195;28;20430;-79
2022/06/03 01:56:27;;;;;;;6.07;5.70;;;;;;;;;;5036589;28;20476;-80
2022/06/03 01:59:15;;;;;;;6.07;5.70;;;;;;;;;;5041076;28;20466;-79
2022/06/03 02:02:06;;;;;;;5.60;5.23;;;;;;;;;;5031318;28;21032;-80
2022/06/03 02:04:39;;;;;;;6.00;5.60;;;;;;;;;;5039663;28;20830;-80
2022/06/03 02:07:18;;;;;;;5.97;5.37;;;;;;;;;;5040052;28;20458;-79
2022/06/03 02:10:01;;;;;;;6.27;5.87;;;;;;;;;;5039881;28;20512;-80
2022/06/03 02:12:38;;;;;;;6.50;5.90;;;;;;;;;;5037933;28;20534;-81
2022/06/03 02:15:19;;;;;;;5.80;5.40;;;;;;;;;;5040954;28;20836;-79
2022/06/03 02:18:01;;;;;;;6.60;6.10;;;;;;;;;;5035839;28;20427;-79
2022/06/03 02:20:48;;;;;;;6.27;5.87;;;;;;;;;;5045559;28;20493;-79
2022/06/03 02:23:29;;;;;;;6.07;5.57;;;;;;;;;;5038000;28;20472;-79
2022/06/03 02:26:11;;;;;;;6.40;5.80;;;;;;;;;;5039727;28;20554;-79
2022/06/03 02:28:48;;;;;;;8.47;6.40;;;;;;;;;;4994558;28;20462;-80
2022/06/03 02:31:32;;;;;;;6.40;5.80;;;;;;;;;;5038784;28;20446;-80
2022/06/03 02:34:14;;;;;;;5.70;5.30;;;;;;;;;;5037332;28;20496;-79
2022/06/03 02:36:51;;;;;;;6.33;5.83;;;;;;;;;;5035164;28;20462;-79
2022/06/03 02:39:26;;;;;;;9.30;6.70;;;;;;;;;;5038556;28;20469;-80
2022/06/03 02:42:01;;;;;;;7.07;6.37;;;;;;;;;;5035451;28;20460;-79
2022/06/03 02:44:49;;;;;;;7.20;6.60;;;;;;;;;;5039511;28;20539;-81
2022/06/03 02:47:32;;;;;;;7.10;6.60;;;;;;;;;;5037638;28;20438;-79
2022/06/03 02:50:13;;;;;;;6.37;5.90;;;;;;;;;;5039991;28;20473;-80
2022/06/03 02:52:51;;;;;;;6.57;6.07;;;;;;;;;;5036696;28;20460;-80
2022/06/03 02:55:44;;;;;;;6.27;5.77;;;;;;;;;;5039668;28;20486;-79
2022/06/03 02:58:26;;;;;;;7.77;6.50;;;;;;;;;;5043011;28;20869;-81
2022/06/03 03:01:04;;;;;;;6.60;6.20;;;;;;;;;;5039789;28;20491;-80
2022/06/03 03:03:43;;;;;;;7.17;6.67;;;;;;;;;;5038362;28;20462;-80
2022/06/03 03:06:29;;;;;;;6.70;6.20;;;;;;;;;;5042083;28;20435;-79
2022/06/03 03:09:04;;;;;;;6.63;6.20;;;;;;;;;;5040969;28;20462;-79
2022/06/03 03:11:49;;;;;;;6.40;5.90;;;;;;;;;;5038698;28;20414;-79
2022/06/03 03:14:31;;;;;;;7.37;6.77;;;;;;;;;;5039233;28;20446;-80
2022/06/03 03:17:07;;;;;;;6.37;5.90;;;;;;;;;;5022536;28;20466;-79
2022/06/03 03:19:43;;;;;;;6.90;6.37;;;;;;;;;;5037477;28;21051;-80
2022/06/03 03:22:25;;;;;;;6.93;6.33;;;;;;;;;;5039874;28;20445;-79
2022/06/03 03:25:04;;;;;;;6.63;6.20;;;;;;;;;;5038870;28;20494;-79
2022/06/03 03:27:46;;;;;;;8.20;7.50;;;;;;;;;;5041122;28;20449;-79
2022/06/03 03:30:18;;;;;;;7.07;6.50;;;;;;;;;;5043575;28;20466;-80
2022/06/03 03:32:58;;;;;;;6.50;6.00;;;;;;;;;;5044815;28;20438;-80
2022/06/03 03:35:42;;;;;;;7.13;6.43;;;;;;;;;;5042302;28;20442;-79
2022/06/03 03:38:31;;;;;;;7.90;6.53;;;;;;;;;;5041524;28;20849;-79
2022/06/03 03:41:18;;;;;;;6.53;6.10;;;;;;;;;;5050795;28;20488;-79
2022/06/03 03:44:04;;;;;;;6.77;6.30;;;;;;;;;;5070453;28;20480;-80
2022/06/03 03:46:50;;;;;;;7.00;6.50;;;;;;;;;;5082911;28;20440;-80
2022/06/03 03:49:38;;;;;;;6.70;6.17;;;;;;;;;;5082907;28;20476;-79
2022/06/03 03:52:26;;;;;;;6.60;6.10;;;;;;;;;;5081178;28;20479;-80
2022/06/03 03:55:09;;;;;;;6.80;6.40;;;;;;;;;;5079969;28;20439;-80
2022/06/03 03:57:52;;;;;;;7.10;6.60;;;;;;;;;;5082956;28;20474;-79
2022/06/03 04:00:46;;;;;;;7.83;7.00;;;;;;;;;;5080062;28;20468;-80
2022/06/03 04:03:36;;;;;;;6.70;6.10;;;;;;;;;;5046411;28;20452;-80
2022/06/03 04:06:34;;;;;;;7.67;6.53;;;;;;;;;;5081200;28;20425;-79
2022/06/03 04:09:19;;;;;;;6.63;6.13;;;;;;;;;;5065137;28;20476;-79
2022/06/03 04:11:57;;;;;;;8.30;7.37;;;;;;;;;;5063108;28;20445;-80
2022/06/03 04:14:43;;;;;;;7.50;6.90;;;;;;;;;;5061205;28;20438;-80
2022/06/03 04:17:31;;;;;;;6.80;6.30;;;;;;;;;;5060896;28;20436;-79
2022/06/03 04:20:20;;;;;;;7.70;7.00;;;;;;;;;;5028838;28;20457;-80
2022/06/03 04:23:02;;;;;;;7.63;7.03;;;;;;;;;;5060785;28;20465;-79
2022/06/03 04:25:39;;;;;;;7.83;7.30;;;;;;;;;;5058137;28;20458;-79
2022/06/03 04:28:19;;;;;;;6.40;6.00;;;;;;;;;;5058587;28;20487;-79
2022/06/03 04:31:04;;;;;;;7.53;7.03;;;;;;;;;;5059661;28;20433;-80
2022/06/03 04:33:46;;;;;;;7.17;6.57;;;;;;;;;;5062016;28;20434;-79
2022/06/03 04:36:35;;;;;;;6.30;5.90;;;;;;;;;;5057630;28;20465;-79
2022/06/03 04:39:22;;;;;;;7.30;6.60;;;;;;;;;;5063587;28;20481;-79
2022/06/03 04:42:22;;;;;;;8.97;8.20;;;;;;;;;;5064501;28;20454;-80
2022/06/03 04:45:20;;;;;;;9.47;8.67;;;;;;;;;;4979685;28;20504;-79
2022/06/03 04:48:11;;;;;;;7.57;7.00;;;;;;;;;;4979523;28;20477;-80
2022/06/03 04:50:57;;;;;;;8.60;7.80;;;;;;;;;;5047836;28;20456;-80
2022/06/03 04:53:49;;;;;;;8.50;7.60;;;;;;;;;;5063289;28;20464;-80
2022/06/03 04:56:34;;;;;;;8.80;8.20;;;;;;;;;;5063670;28;20484;-80
2022/06/03 04:59:21;;;;;;;8.93;8.07;;;;;;;;;;5050135;28;20496;-79
2022/06/03 05:02:02;;;;;;;8.07;7.57;;;;;;;;;;5063413;28;20472;-81
2022/06/03 05:04:44;;;;;;;9.00;8.30;;;;;;;;;;5062923;28;20528;-82
2022/06/03 05:07:39;;;;;;;9.47;8.57;;;;;;;;;;5059977;28;20437;-82
2022/06/03 05:10:40;;;;;;;9.33;8.53;;;;;;;;;;5062962;28;20457;-82
2022/06/03 05:13:22;;;;;;;9.43;8.50;;;;;;;;;;5062305;28;20793;-83
2022/06/03 05:16:04;;;;;;;9.50;8.70;;;;;;;;;;5071090;28;20572;-83
2022/06/03 05:18:40;;;;;;;9.20;8.30;;;;;;;;;;5061032;28;20454;-83
2022/06/03 05:21:27;;;;;;;9.27;8.33;;;;;;;;;;5045483;28;20446;-81
2022/06/03 05:24:05;;;;;;;8.93;8.23;;;;;;;;;;5075063;28;20452;-82
2022/06/03 05:26:49;;;;;;;11.97;10.20;;;;;;;;;;5065295;28;20445;-81
2022/06/03 05:29:25;;;;;;;10.27;9.40;;;;;;;;;;5066245;28;20491;-81
2022/06/03 05:32:13;;;;;;;10.73;9.87;;;;;;;;;;5057169;28;20429;-81
2022/06/03 05:35:04;;;;;;;10.43;9.60;;;;;;;;;;5058204;28;20430;-81
2022/06/03 05:37:40;;;;;;;10.47;9.67;;;;;;;;;;5061308;28;20434;-81
2022/06/03 05:40:13;;;;;;;12.53;11.40;;;;;;;;;;5062680;28;20449;-83
2022/06/03 05:42:45;;;;;;;12.47;11.27;;;;;;;;;;5060114;28;20445;-83
2022/06/03 05:45:30;;;;;;;11.17;10.27;;;;;;;;;;5056483;28;20980;-81
2022/06/03 05:47:59;;;;;;;11.87;10.73;;;;;;;;;;5060229;28;20429;-81
2022/06/03 05:50:34;;;;;;;11.93;10.73;;;;;;;;;;5060728;28;20469;-82
2022/06/03 05:53:09;;;;;;;12.30;11.17;;;;;;;;;;5058420;28;20441;-81
2022/06/03 05:55:41;;;;;;;13.53;12.33;;;;;;;;;;5058376;28;20786;-81
2022/06/03 05:58:15;;;;;;;11.87;10.87;;;;;;;;;;5057552;28;20457;-81
2022/06/03 06:00:50;;;;;;;13.07;12.07;;;;;;;;;;5059993;28;20445;-82
2022/06/03 06:03:27;;;;;;;12.90;11.57;;;;;;;;;;5060861;28;20449;-81
2022/06/03 06:06:04;;;;;;;11.07;10.20;;;;;;;;;;5062573;28;20572;-81
2022/06/03 06:08:37;;;;;;;11.23;10.13;;;;;;;;;;5062454;28;20472;-81
2022/06/03 06:11:08;;;;;;;10.27;9.47;;;;;;;;;;5061968;28;20438;-82
2022/06/03 06:13:54;;;;;;;9.20;8.47;;;;;;;;;;5061424;28;20460;-81
2022/06/03 06:16:22;;;;;;;9.50;8.60;;;;;;;;;;5061349;28;20475;-81
2022/06/03 06:18:54;;;;;;;9.40;8.60;;;;;;;;;;5061583;28;20470;-83
2022/06/03 06:21:41;;;;;;;9.70;8.87;;;;;;;;;;5062639;28;20495;-82
2022/06/03 06:24:13;;;;;;;9.57;8.77;;;;;;;;;;5062466;28;20453;-82
2022/06/03 06:27:08;;;;;;;9.43;8.67;;;;;;;;;;5062689;28;20453;-82
2022/06/03 06:30:01;;;;;;;12.67;9.83;;;;;;;;;;5062845;28;20469;-81
2022/06/03 06:32:32;;;;;;;9.90;9.10;;;;;;;;;;5062793;28;20520;-82
2022/06/03 06:35:14;;;;;;;9.37;8.57;;;;;;;;;;5062257;28;20472;-82
2022/06/03 06:37:55;;;;;;;8.77;8.13;;;;;;;;;;5061694;28;20905;-82
2022/06/03 06:40:31;;;;;;;9.73;8.50;;;;;;;;;;5063093;28;20465;-83
2022/06/03 06:43:02;;;;;;;9.33;8.00;;;;;;;;;;5071126;28;20436;-82
2022/06/03 06:45:36;;;;;;;10.27;9.27;;;;;;;;;;5061454;28;20473;-83
2022/06/03 06:48:07;;;;;;;9.30;8.60;;;;;;;;;;5062623;28;20878;-83
2022/06/03 06:50:36;;;;;;;10.80;10.00;;;;;;;;;;5062869;28;20949;-81
2022/06/03 06:53:06;;;;;;;9.17;8.37;;;;;;;;;;5060636;28;20433;-81
2022/06/03 06:55:42;;;;;;;9.20;8.30;;;;;;;;;;5058846;28;20433;-81
2022/06/03 06:58:26;;;;;;;8.93;8.03;;;;;;;;;;5061837;28;20464;-82
2022/06/03 07:00:53;;;;;;;9.83;7.80;;;;;;;;;;5066450;28;20794;-81
2022/06/03 07:03:23;;;;;;;9.30;8.50;;;;;;;;;;5057315;28;20471;-80
2022/06/03 07:05:53;;;;;;;8.30;7.60;;;;;;;;;;5056267;28;20470;-81
2022/06/03 07:08:21;;;;;;;10.53;8.30;;;;;;;;;;5057423;28;20798;-80
2022/06/03 07:10:53;;;;;;;8.60;7.90;;;;;;;;;;5064346;28;20647;-81
2022/06/03 07:13:22;;;;;;;7.70;7.20;;;;;;;;;;5066042;28;20432;-82
2022/06/03 07:16:01;;;;;;;9.20;8.30;;;;;;;;;;5066725;28;20471;-82
2022/06/03 07:21:25;;;;;;;8.77;8.10;;;;;;;;;;5067826;28;20417;-82
2022/06/03 07:23:54;;;;;;;9.00;8.20;;;;;;;;;;5067123;28;20426;-80
2022/06/03 07:26:39;;;;;;;10.20;7.50;;;;;;;;;;5060405;28;20473;-81
2022/06/03 07:29:11;;;;;;;8.07;7.30;;;;;;;;;;5058556;28;20462;-82
2022/06/03 07:31:41;;;;;;;7.70;7.07;;;;;;;;;;5058854;28;20506;-81
2022/06/03 07:34:13;;;;;;;8.10;7.50;;;;;;;;;;5058951;28;20442;-81
2022/06/03 07:36:43;;;;;;;7.80;7.10;;;;;;;;;;5059656;28;20442;-81
2022/06/03 07:39:29;;;;;;;7.23;6.63;;;;;;;;;;5059630;28;20523;-82
2022/06/03 07:42:04;;;;;;;8.53;7.47;;;;;;;;;;5064810;28;20449;-82
2022/06/03 07:44:37;;;;;;;7.90;7.30;;;;;;;;;;5065233;28;20453;-82
2022/06/03 07:47:05;;;;;;;6.90;6.33;;;;;;;;;;5066233;28;20449;-81
2022/06/03 07:49:35;;;;;;;6.70;6.20;;;;;;;;;;5065342;28;20495;-81
2022/06/03 07:52:05;;;;;;;7.93;7.23;;;;;;;;;;5063434;28;20437;-82
2022/06/03 07:54:34;;;;;;;7.13;6.63;;;;;;;;;;5061723;28;20495;-81
2022/06/03 07:57:04;;;;;;;7.90;7.20;;;;;;;;;;5060161;28;20477;-81
2022/06/03 07:59:33;;;;;;;7.77;7.07;;;;;;;;;;5060235;28;20469;-80
2022/06/03 08:02:01;;;;;;;7.53;6.93;;;;;;;;;;5060267;28;20446;-81
2022/06/03 08:04:29;;;;;;;6.60;6.10;;;;;;;;;;5060380;28;20449;-81
2022/06/03 08:12:29;;;;;;;7.90;6.33;;;;;;;;;;5065088;28;20401;-80
2022/06/03 08:14:56;;;;;;;6.03;5.63;;;;;;;;;;5072644;28;20457;-80
2022/06/03 08:17:24;;;;;;;6.53;6.13;;;;;;;;;;5069327;28;20441;-80
2022/06/03 08:19:52;;;;;;;7.20;6.63;;;;;;;;;;5063095;28;20495;-81
2022/06/03 08:22:22;;;;;;;7.10;6.17;;;;;;;;;;5064150;28;20453;-82
2022/06/03 08:24:52;;;;;;;7.00;6.40;;;;;;;;;;5063024;28;20933;-80
2022/06/03 08:27:22;;;;;;;6.30;5.80;;;;;;;;;;5062200;28;20524;-81
2022/06/03 08:29:52;;;;;;;5.90;5.40;;;;;;;;;;5062317;28;20960;-82
2022/06/03 08:32:21;;;;;;;6.10;5.60;;;;;;;;;;5061768;28;20991;-80
2022/06/03 08:34:50;;;;;;;6.60;5.97;;;;;;;;;;5061877;28;20500;-79
2022/06/03 08:37:19;;;;;;;6.17;5.50;;;;;;;;;;5062134;28;20536;-81
2022/06/03 08:39:47;;;;;;;5.90;5.40;;;;;;;;;;5063722;28;20476;-81
2022/06/03 08:42:23;;;;;;;6.50;6.00;;;;;;;;;;5070074;28;20495;-79
2022/06/03 08:44:58;;;;;;;6.10;5.60;;;;;;;;;;5070790;28;20446;-80
2022/06/03 08:47:29;;;;;;;5.60;5.10;;;;;;;;;;5067814;28;20418;-80
2022/06/03 08:50:01;;;;;;;6.40;5.90;;;;;;;;;;5065619;28;20489;-81
2022/06/03 08:52:35;;;;;;;6.13;5.70;;;;;;;;;;5070349;28;20438;-81
2022/06/03 08:55:05;;;;;;;5.20;4.90;;;;;;;;;;5067495;28;20425;-82
2022/06/03 08:57:37;;;;;;;5.10;4.80;;;;;;;;;;5061716;28;20504;-81
2022/06/03 09:00:09;;;;;;;4.30;3.93;;;;;;;;;;5060495;28;20456;-81
2022/06/03 09:02:39;;;;;;;5.00;4.60;;;;;;;;;;5059100;28;20442;-81
2022/06/03 09:05:09;;;;;;;7.20;4.80;;;;;;;;;;5057430;28;20987;-81
2022/06/03 09:07:39;;;;;;;5.53;5.13;;;;;;;;;;5061778;28;20446;-81
2022/06/03 09:10:09;;;;;;;5.90;4.90;;;;;;;;;;5059773;28;20504;-81
2022/06/03 09:12:42;;;;;;;4.80;4.50;;;;;;;;;;5058052;28;20442;-81
2022/06/03 09:15:13;;;;;;;5.50;4.57;;;;;;;;;;5059482;28;20449;-82
2022/06/03 09:17:41;;;;;;;4.60;4.30;;;;;;;;;;5061471;28;20446;-83
2022/06/03 09:20:12;;;;;;;5.17;4.87;;;;;;;;;;5061435;28;20470;-82
2022/06/03 09:22:39;;;;;;;7.83;5.20;;;;;;;;;;5060812;28;20441;-81
2022/06/03 09:25:10;;;;;;;5.57;4.93;;;;;;;;;;5060271;28;20524;-81
2022/06/03 09:27:37;;;;;;;7.10;5.10;;;;;;;;;;5057380;28;20445;-81
2022/06/03 09:30:05;;;;;;;6.30;5.80;;;;;;;;;;5059589;28;20469;-82
2022/06/03 09:32:38;;;;;;;5.90;5.50;;;;;;;;;;5060348;28;20445;-82
2022/06/03 09:35:07;;;;;;;4.83;4.57;;;;;;;;;;5061015;28;20456;-82
2022/06/03 09:37:36;;;;;;;5.80;5.40;;;;;;;;;;5060690;28;20464;-81
2022/06/03 09:40:05;;;;;;;5.13;4.83;;;;;;;;;;5060707;28;20470;-81
2022/06/03 09:42:32;;;;;;;4.80;4.50;;;;;;;;;;5060555;28;20438;-81
2022/06/03 09:45:02;;;;;;;5.10;4.80;;;;;;;;;;5059451;28;20434;-82
2022/06/03 09:47:29;;;;;;;5.93;5.53;;;;;;;;;;5059809;28;20430;-82
2022/06/03 09:49:58;;;;;;;5.80;5.30;;;;;;;;;;5060530;28;20524;-82
2022/06/03 09:52:27;;;;;;;5.40;5.00;;;;;;;;;;5059131;28;20445;-81
2022/06/03 09:54:55;;;;;;;5.20;4.97;;;;;;;;;;5060266;28;20942;-81
2022/06/03 09:57:26;;;;;;;5.03;4.63;;;;;;;;;;5061080;28;20470;-81
2022/06/03 09:59:54;;;;;;;5.13;4.73;;;;;;;;;;5059755;28;20575;-81
2022/06/03 10:02:21;;;;;;;5.57;5.07;;;;;;;;;;5060245;28;20449;-81
2022/06/03 10:04:48;;;;;;;6.20;5.23;;;;;;;;;;5072220;28;20504;-81
2022/06/03 10:07:17;;;;;;;6.43;4.57;;;;;;;;;;5075371;28;20477;-81
2022/06/03 10:12:50;;;;;;;5.40;4.90;;;;;;;;;;5076290;28;20449;-82
2022/06/03 10:18:06;;;;;;;5.07;4.77;;;;;;;;;;5075777;28;20421;-80
2022/06/03 10:20:35;;;;;;;4.83;4.43;;;;;;;;;;5068306;28;20462;-80
2022/06/03 10:23:04;;;;;;;5.37;4.47;;;;;;;;;;5059738;28;20468;-81
2022/06/03 10:25:32;;;;;;;4.77;4.47;;;;;;;;;;5060947;28;20477;-80
2022/06/03 10:28:02;;;;;;;4.70;4.40;;;;;;;;;;5059733;28;20450;-82
2022/06/03 10:30:30;;;;;;;4.90;4.43;;;;;;;;;;5059838;28;20473;-81
2022/06/03 10:32:58;;;;;;;4.73;4.43;;;;;;;;;;5059231;28;20444;-81
2022/06/03 10:35:28;;;;;;;4.70;4.40;;;;;;;;;;5059586;28;20839;-81
2022/06/03 10:37:56;;;;;;;5.13;4.83;;;;;;;;;;5059749;28;20438;-81
2022/06/03 10:40:26;;;;;;;5.60;5.10;;;;;;;;;;5059964;28;20827;-82
2022/06/03 10:42:54;;;;;;;4.27;4.07;;;;;;;;;;5058685;28;20517;-83
2022/06/03 10:45:26;;;;;;;4.13;3.93;;;;;;;;;;5059793;28;20468;-81
2022/06/03 10:47:53;;;;;;;3.77;3.57;;;;;;;;;;5057635;28;20430;-82
2022/06/03 10:50:27;;;;;;;4.20;4.00;;;;;;;;;;5060687;28;20539;-81
2022/06/03 11:01:30;;;;;;;4.20;3.90;;;;;;;;;;5059531;28;20436;-83
2022/06/03 11:03:57;;;;;;;4.03;3.53;;;;;;;;;;5059513;28;20948;-81
2022/06/03 11:06:25;;;;;;;3.97;3.63;;;;;;;;;;5059902;28;20481;-81
2022/06/03 11:08:53;;;;;;;3.50;3.20;;;;;;;;;;5059586;28;20887;-82
2022/06/03 11:11:36;;;;;;;4.30;3.97;;;;;;;;;;5058518;28;20491;-82
2022/06/03 11:14:22;;;;;;;5.77;3.60;;;;;;;;;;5058451;28;20449;-81
2022/06/03 11:16:50;;;;;;;6.03;3.77;;;;;;;;;;5058696;28;20445;-82
2022/06/03 11:19:18;;;;;;;3.87;3.57;;;;;;;;;;5060870;28;20484;-80
2022/06/03 11:21:45;;;;;;;3.93;3.53;;;;;;;;;;5067670;28;20480;-81
2022/06/03 11:24:12;;;;;;;4.00;3.70;;;;;;;;;;5065594;28;20434;-81
2022/06/03 11:26:45;;;;;;;4.00;3.70;;;;;;;;;;5062444;28;20462;-80
2022/06/03 11:29:15;;;;;;;3.83;3.53;;;;;;;;;;5061465;28;20468;-82
2022/06/03 11:31:43;;;;;;;3.80;3.60;;;;;;;;;;5061982;28;20448;-82
2022/06/03 11:34:17;;;;;;;4.07;3.70;;;;;;;;;;5061286;28;20956;-81
2022/06/03 11:36:47;;;;;;;4.20;3.70;;;;;;;;;;5060226;28;20769;-82
2022/06/03 11:39:19;;;;;;;4.13;3.93;;;;;;;;;;5063570;28;20457;-81
2022/06/03 11:41:50;;;;;;;3.93;3.63;;;;;;;;;;5064723;28;20435;-83
2022/06/03 11:44:19;;;;;;;3.93;3.63;;;;;;;;;;5064778;28;20453;-80
2022/06/03 11:46:48;;;;;;;4.77;3.60;;;;;;;;;;5065440;28;20469;-82
2022/06/03 11:49:18;;;;;;;4.20;3.87;;;;;;;;;;5065809;28;20453;-81
2022/06/03 11:51:46;;;;;;;5.03;4.60;;;;;;;;;;5063872;28;21540;-82
2022/06/03 11:54:14;;;;;;;4.63;4.33;;;;;;;;;;5065149;28;20879;-81
2022/06/03 11:56:41;;;;;;;4.87;4.50;;;;;;;;;;5065891;28;20437;-82
2022/06/03 11:59:12;;;;;;;4.50;4.20;;;;;;;;;;5070173;28;20473;-81
2022/06/03 12:01:45;;;;;;;5.07;4.70;;;;;;;;;;5071719;28;20446;-81
2022/06/03 12:04:17;;;;;;;4.87;4.37;;;;;;;;;;5065224;28;20459;-82
2022/06/03 12:06:46;;;;;;;4.80;4.30;;;;;;;;;;5063427;28;20568;-82
2022/06/03 12:09:20;;;;;;;5.77;4.77;;;;;;;;;;5064203;28;20464;-81
2022/06/03 12:14:44;;;;;;;4.93;4.43;;;;;;;;;;5064687;28;20413;-80
2022/06/03 12:17:27;;;;;;;5.13;4.73;;;;;;;;;;5065127;28;20446;-82
2022/06/03 12:19:54;;;;;;;5.20;4.80;;;;;;;;;;5065083;28;20466;-81
2022/06/03 12:22:36;;;;;;;5.13;4.50;;;;;;;;;;5065791;28;20457;-81
2022/06/03 12:25:04;;;;;;;5.23;4.73;;;;;;;;;;5064494;28;20445;-82
2022/06/03 12:27:33;;;;;;;5.03;4.63;;;;;;;;;;5063542;28;20473;-82
2022/06/03 12:30:21;;;;;;;6.10;4.67;;;;;;;;;;5063899;28;20469;-82
2022/06/03 12:32:52;;;;;;;5.70;4.27;;;;;;;;;;5063619;28;20461;-82
2022/06/03 12:35:38;;;;;;;4.20;4.00;;;;;;;;;;5063033;28;20450;-82
2022/06/03 12:38:20;;;;;;;5.77;5.30;;;;;;;;;;5064128;28;20470;-81
2022/06/03 12:40:48;;;;;;;5.47;5.10;;;;;;;;;;5062616;28;20440;-83
2022/06/03 12:43:24;;;;;;;4.73;4.43;;;;;;;;;;5062315;28;20472;-81
2022/06/03 12:45:59;;;;;;;5.00;4.60;;;;;;;;;;5062725;28;20445;-81
2022/06/03 12:48:38;;;;;;;5.20;4.60;;;;;;;;;;5062562;28;20413;-85
2022/06/03 12:51:13;;;;;;;4.73;4.43;;;;;;;;;;5062413;28;20453;-82
2022/06/03 12:53:44;;;;;;;5.33;4.93;;;;;;;;;;5062292;28;20446;-82
2022/06/03 12:56:23;;;;;;;4.50;4.20;;;;;;;;;;5062952;28;20517;-81
2022/06/03 12:58:54;;;;;;;4.67;4.10;;;;;;;;;;5063543;28;20474;-83
2022/06/03 13:01:36;;;;;;;4.73;4.40;;;;;;;;;;5061992;28;20422;-82
2022/06/03 13:04:22;;;;;;;5.20;4.90;;;;;;;;;;5062846;28;20440;-83
2022/06/03 13:07:04;;;;;;;5.33;4.70;;;;;;;;;;5062401;28;20480;-82
2022/06/03 13:09:50;;;;;;;5.30;4.57;;;;;;;;;;5062018;28;20657;-82
2022/06/03 13:12:18;;;;;;;5.83;5.07;;;;;;;;;;5062905;28;20437;-82
2022/06/03 13:14:45;;;;;;;5.20;4.90;;;;;;;;;;5062880;28;20455;-83
2022/06/03 13:17:27;;;;;;;5.23;4.77;;;;;;;;;;5062632;28;20430;-83
2022/06/03 13:20:00;;;;;;;4.80;4.40;;;;;;;;;;5062935;28;20461;-82
2022/06/03 13:22:29;;;;;;;5.43;4.93;;;;;;;;;;5063550;28;20454;-82
2022/06/03 13:25:11;;;;;;;7.87;7.17;;;;;;;;;;5063329;28;20452;-82
2022/06/03 13:27:38;;;;;;;8.77;7.97;;;;;;;;;;5061199;28;20481;-83
2022/06/03 13:30:11;;;;;;;11.90;9.50;;;;;;;;;;5063780;28;20523;-82
2022/06/03 13:32:43;;;;;;;9.53;7.47;;;;;;;;;;5063505;28;20473;-83
2022/06/03 13:35:21;;;;;;;6.87;6.27;;;;;;;;;;5063764;28;20457;-82
2022/06/03 13:37:49;;;;;;;10.43;7.30;;;;;;;;;;5063220;28;20441;-81
2022/06/03 13:40:38;;;;;;;7.67;7.03;;;;;;;;;;5063348;28;20510;-82
2022/06/03 13:43:15;;;;;;;8.27;7.47;;;;;;;;;;5057722;28;20457;-82
2022/06/03 13:45:52;;;;;;;8.77;8.07;;;;;;;;;;5062605;28;20453;-83
2022/06/03 13:48:23;;;;;;;6.43;6.03;;;;;;;;;;5061719;28;20519;-82
2022/06/03 13:50:51;;;;;;;7.20;6.60;;;;;;;;;;5061913;28;20956;-82
2022/06/03 13:53:24;;;;;;;7.43;6.80;;;;;;;;;;5061734;28;20503;-82
2022/06/03 13:55:53;;;;;;;9.57;8.57;;;;;;;;;;5061820;28;20457;-82
2022/06/03 13:58:24;;;;;;;8.40;7.00;;;;;;;;;;5060512;28;20437;-83
2022/06/03 14:00:58;;;;;;;7.27;6.67;;;;;;;;;;5061387;28;20987;-82
2022/06/03 14:03:26;;;;;;;7.13;6.63;;;;;;;;;;5066458;28;20815;-80
2022/06/03 14:05:58;;;;;;;6.53;5.93;;;;;;;;;;5063905;28;20446;-82
2022/06/03 14:08:29;;;;;;;6.53;5.97;;;;;;;;;;5062798;28;20817;-81
2022/06/03 14:11:00;;;;;;;6.70;6.20;;;;;;;;;;5062624;28;20460;-81
2022/06/03 14:13:32;;;;;;;6.33;5.70;;;;;;;;;;5061562;28;20445;-82
2022/06/03 14:16:02;;;;;;;6.40;5.90;;;;;;;;;;5062560;28;20803;-83
2022/06/03 14:18:49;;;;;;;7.50;6.87;;;;;;;;;;5062981;28;20437;-81
2022/06/03 14:21:18;;;;;;;6.57;6.17;;;;;;;;;;5062913;28;20429;-82
2022/06/03 14:23:46;;;;;;;6.57;5.97;;;;;;;;;;5062699;28;20441;-80
2022/06/03 14:26:17;;;;;;;6.73;6.20;;;;;;;;;;5062511;28;20441;-81
2022/06/03 14:28:50;;;;;;;7.20;6.60;;;;;;;;;;5063205;28;20827;-82
2022/06/03 14:31:23;;;;;;;7.50;6.80;;;;;;;;;;5062350;28;20441;-82
2022/06/03 14:33:52;;;;;;;6.87;6.27;;;;;;;;;;5060918;28;20426;-82
2022/06/03 14:36:21;;;;;;;8.10;7.40;;;;;;;;;;5061517;28;20454;-82
2022/06/03 14:38:50;;;;;;;8.67;7.20;;;;;;;;;;5062042;28;20469;-83
2022/06/03 14:41:21;;;;;;;5.90;5.50;;;;;;;;;;5061541;28;20882;-82
2022/06/03 14:43:48;;;;;;;9.47;7.13;;;;;;;;;;5059783;28;20445;-82
2022/06/03 14:46:16;;;;;;;7.83;6.93;;;;;;;;;;5060730;28;20441;-82
2022/06/03 14:48:47;;;;;;;10.00;8.10;;;;;;;;;;5059120;28;20535;-82
2022/06/03 14:51:19;;;;;;;8.00;7.30;;;;;;;;;;5060696;28;20441;-82
2022/06/03 14:53:51;;;;;;;6.27;5.77;;;;;;;;;;5059421;28;20476;-83
2022/06/03 14:56:24;;;;;;;7.33;6.53;;;;;;;;;;5060538;28;20540;-82
2022/06/03 14:58:53;;;;;;;6.73;6.23;;;;;;;;;;5059167;28;20458;-82
2022/06/03 15:01:28;;;;;;;6.60;6.10;;;;;;;;;;5059807;28;20497;-82
2022/06/03 15:03:58;;;;;;;7.73;6.43;;;;;;;;;;5060385;28;20461;-81
2022/06/03 15:06:27;;;;;;;6.13;5.67;;;;;;;;;;5061137;28;20866;-82
2022/06/03 15:08:59;;;;;;;6.47;5.93;;;;;;;;;;5058938;28;20843;-84
2022/06/03 15:11:28;;;;;;;8.77;7.87;;;;;;;;;;5062536;28;20453;-82
2022/06/03 15:13:55;;;;;;;7.83;6.80;;;;;;;;;;5060509;28;20445;-81
2022/06/03 15:16:22;;;;;;;6.17;5.77;;;;;;;;;;5056024;28;20487;-83
2022/06/03 15:18:50;;;;;;;6.10;5.50;;;;;;;;;;5054764;28;20461;-83
2022/06/03 15:21:21;;;;;;;6.33;5.80;;;;;;;;;;5055138;28;20453;-84
2022/06/03 15:23:50;;;;;;;6.63;6.13;;;;;;;;;;5057388;28;20492;-80
2022/06/03 15:26:20;;;;;;;5.90;5.50;;;;;;;;;;5060842;28;20430;-81
2022/06/03 15:28:50;;;;;;;6.60;6.03;;;;;;;;;;5060744;28;20758;-81
2022/06/03 15:31:18;;;;;;;6.60;6.10;;;;;;;;;;5060694;28;20788;-82
2022/06/03 15:33:51;;;;;;;7.10;6.50;;;;;;;;;;5059318;28;20801;-83
2022/06/03 15:36:19;;;;;;;6.87;5.53;;;;;;;;;;5059978;28;20758;-84
2022/06/03 15:38:47;;;;;;;7.77;7.27;;;;;;;;;;5059332;28;20464;-83
2022/06/03 15:41:19;;;;;;;11.67;10.23;;;;;;;;;;5059744;28;20460;-83
2022/06/03 15:43:48;;;;;;;7.60;7.00;;;;;;;;;;5059402;28;20437;-82
2022/06/03 15:46:28;;;;;;;6.37;5.97;;;;;;;;;;5059665;28;20437;-82
2022/06/03 15:48:56;;;;;;;7.70;7.00;;;;;;;;;;5058895;28;20481;-84
2022/06/03 15:51:23;;;;;;;7.47;6.77;;;;;;;;;;5059957;28;20445;-83
2022/06/03 15:53:51;;;;;;;8.33;7.53;;;;;;;;;;5059521;28;20454;-82
2022/06/03 15:56:21;;;;;;;8.90;8.10;;;;;;;;;;5058750;28;20436;-82